createdAt,value
2023-04-02T00:01:01.655Z,6.20
2023-04-02T00:03:59.581Z,5.03
2023-04-02T00:06:30.073Z,4.50
2023-04-02T00:09:04.685Z,4.75
2023-04-02T00:11:37.500Z,4.97
2023-04-02T00:14:13.350Z,6.00
2023-04-02T00:16:39.944Z,7.37
2023-04-02T00:19:12.974Z,6.35
2023-04-02T00:21:41.623Z,4.95
2023-04-02T00:24:15.568Z,6.50
2023-04-02T00:26:48.984Z,6.15
2023-04-02T00:29:17.283Z,5.30
2023-04-02T00:31:50.308Z,5.75
2023-04-02T00:34:33.262Z,5.68
2023-04-02T00:37:00.112Z,8.30
2023-04-02T00:39:30.888Z,7.93
2023-04-02T00:42:04.858Z,7.05
2023-04-02T00:44:42.771Z,6.70
2023-04-02T00:47:32.636Z,7.05
2023-04-02T00:50:23.493Z,7.32
2023-04-02T00:52:51.981Z,7.65
2023-04-02T00:55:24.807Z,7.57
2023-04-02T00:57:52.286Z,7.45
2023-04-02T01:00:22.532Z,6.78
2023-04-02T01:03:19.004Z,6.85
2023-04-02T01:06:10.819Z,7.93
2023-04-02T01:09:15.280Z,7.43
2023-04-02T01:11:41.625Z,7.30
2023-04-02T01:14:33.081Z,7.53
2023-04-02T01:17:30.447Z,9.75
2023-04-02T01:20:00.985Z,8.35
2023-04-02T01:22:48.036Z,8.68
2023-04-02T01:25:21.015Z,8.65
2023-04-02T01:28:05.998Z,7.43
2023-04-02T01:30:36.057Z,6.72
2023-04-02T01:33:03.904Z,7.78
2023-04-02T01:35:36.468Z,7.45
2023-04-02T01:38:11.894Z,6.30
2023-04-02T01:40:45.686Z,5.57
2023-04-02T01:43:35.539Z,6.20
2023-04-02T01:46:24.586Z,5.97
2023-04-02T01:48:52.922Z,5.57
2023-04-02T01:51:53.776Z,8.35
2023-04-02T01:54:21.523Z,5.63
2023-04-02T01:56:48.723Z,5.72
2023-04-02T01:59:22.413Z,4.70
2023-04-02T02:02:04.393Z,4.43
2023-04-02T02:07:18.220Z,4.75
